Time;durP1;ratioP1;P1;durP2;ratioP2;P2;SDS_P1;SDS_P2;PMS_P1;PMS_P2;Temp;Humidity;BMP_temperature;BMP_pressure;BME280_temperature;BME280_humidity;BME280_pressure;Samples;Min_cycle;Max_cycle;Signal;HPM_P1;HPM_P2
2023/01/10 00:00:21;;;;;;;2.27;2.07;;;;;;;2.67;100.00;96416.19;5031522;28;20227;-70
2023/01/10 00:02:50;;;;;;;2.37;2.20;;;;;;;2.75;100.00;96436.31;5030510;28;20238;-70
2023/01/10 00:05:18;;;;;;;2.10;2.00;;;;;;;2.70;100.00;96435.97;5041760;28;20227;-72
2023/01/10 00:07:46;;;;;;;2.40;2.30;;;;;;;2.67;100.00;96431.03;4996181;28;20608;-69
2023/01/10 00:10:14;;;;;;;2.23;2.13;;;;;;;2.76;100.00;96445.81;5046717;28;20223;-71
2023/01/10 00:15:27;;;;;;;2.10;2.00;;;;;;;2.77;100.00;96450.06;5038151;28;20418;-71
2023/01/10 00:17:55;;;;;;;2.13;2.03;;;;;;;2.77;100.00;96446.66;5035683;28;20556;-71
2023/01/10 00:20:23;;;;;;;2.13;2.03;;;;;;;2.78;100.00;96454.34;5049256;28;20226;-72
2023/01/10 00:22:51;;;;;;;1.97;1.87;;;;;;;2.75;100.00;96457.25;5038881;28;20880;-73
2023/01/10 00:25:19;;;;;;;2.00;1.90;;;;;;;2.75;100.00;96459.88;5005901;28;20221;-72
2023/01/10 00:27:56;;;;;;;2.00;1.90;;;;;;;2.78;100.00;96467.41;5040706;28;20467;-72
2023/01/10 00:30:24;;;;;;;3.20;1.90;;;;;;;2.80;100.00;96465.47;5041010;28;20324;-72
2023/01/10 00:32:51;;;;;;;2.17;2.07;;;;;;;2.80;100.00;96473.31;5034593;28;20220;-71
2023/01/10 00:35:20;;;;;;;3.97;1.87;;;;;;;2.80;100.00;96473.31;5043739;28;20217;-71
2023/01/10 00:37:48;;;;;;;2.10;2.00;;;;;;;2.81;100.00;96463.69;5040428;28;20404;-72
2023/01/10 00:40:16;;;;;;;1.80;1.80;;;;;;;2.84;100.00;96473.84;5005119;28;20818;-73
2023/01/10 00:45:29;;;;;;;1.60;1.60;;;;;;;2.85;100.00;96484.16;5049367;28;20203;-71
2023/01/10 00:47:57;;;;;;;1.73;1.70;;;;;;;2.86;100.00;96485.81;5033111;28;20700;-71
2023/01/10 00:50:26;;;;;;;2.03;1.93;;;;;;;2.85;100.00;96493.81;5046550;28;20310;-71
2023/01/10 00:52:53;;;;;;;1.87;1.77;;;;;;;2.85;100.00;96499.88;5040164;28;20207;-71
2023/01/10 00:55:21;;;;;;;2.03;1.93;;;;;;;2.88;100.00;96506.56;5004318;28;20599;-71
2023/01/10 00:57:48;;;;;;;2.30;1.70;;;;;;;2.90;100.00;96517.72;5037660;28;20330;-73
2023/01/10 01:00:16;;;;;;;1.63;1.53;;;;;;;2.89;100.00;96519.53;5044206;28;20223;-72
2023/01/10 01:02:44;;;;;;;1.80;1.70;;;;;;;2.90;100.00;96525.56;5026069;28;20941;-70
2023/01/10 01:05:11;;;;;;;2.00;1.90;;;;;;;2.90;100.00;96533.41;5035506;28;20676;-73
2023/01/10 01:07:40;;;;;;;1.73;1.73;;;;;;;2.94;100.00;96534.75;5029664;28;20203;-71
2023/01/10 01:10:27;;;;;;;2.37;2.27;;;;;;;2.94;100.00;96542.59;4997991;28;20599;-72
2023/01/10 01:12:56;;;;;;;2.30;1.70;;;;;;;2.96;100.00;96545.88;5044127;28;20520;-72
2023/01/10 01:15:24;;;;;;;1.90;1.80;;;;;;;2.94;100.00;96545.22;5039526;28;20199;-71
2023/01/10 01:17:52;;;;;;;1.60;1.60;;;;;;;2.94;100.00;96552.25;5035211;28;20293;-72
2023/01/10 01:20:20;;;;;;;2.00;1.90;;;;;;;2.94;100.00;96567.97;5031071;28;20222;-71
2023/01/10 01:22:49;;;;;;;2.70;1.90;;;;;;;2.95;100.00;96572.22;5029620;28;20210;-71
2023/01/10 01:25:16;;;;;;;2.00;1.90;;;;;;;2.93;100.00;96576.78;5038099;28;20436;-73
2023/01/10 01:27:45;;;;;;;1.63;1.53;;;;;;;2.86;100.00;96566.09;4999578;28;20952;-73
2023/01/10 01:30:13;;;;;;;2.37;2.27;;;;;;;2.85;100.00;96569.69;5038205;28;20222;-72
2023/01/10 01:32:41;;;;;;;2.50;2.10;;;;;;;2.88;100.00;96572.00;5038737;28;20489;-73
2023/01/10 01:35:12;;;;;;;1.87;1.77;;;;;;;2.89;100.00;96581.50;5027796;28;20594;-72
2023/01/10 01:37:40;;;;;;;4.33;1.80;;;;;;;2.89;100.00;96584.09;5036360;28;20875;-72
2023/01/10 01:40:11;;;;;;;1.90;1.80;;;;;;;2.86;100.00;96580.00;5044640;28;20558;-72
2023/01/10 01:42:38;;;;;;;3.20;1.90;;;;;;;2.85;100.00;96596.69;5000154;28;20207;-72
2023/01/10 01:45:31;;;;;;;2.20;2.07;;;;;;;2.82;100.00;96601.38;5043099;28;20586;-71
2023/01/10 01:48:02;;;;;;;3.50;2.67;;;;;;;2.81;100.00;96604.97;5036002;28;20199;-72
2023/01/10 01:50:33;;;;;;;1.83;1.73;;;;;;;2.78;100.00;96613.13;5030040;28;20246;-71
2023/01/10 01:53:03;;;;;;;1.90;1.80;;;;;;;2.77;100.00;96611.47;5040259;28;20230;-72
2023/01/10 01:55:32;;;;;;;3.23;2.20;;;;;;;2.80;100.00;96617.22;5043842;28;20664;-71
2023/01/10 01:58:05;;;;;;;4.07;2.20;;;;;;;2.79;100.00;96618.19;5002847;28;20599;-72
2023/01/10 02:00:34;;;;;;;2.43;2.00;;;;;;;2.78;100.00;96613.13;4993490;28;20892;-72
2023/01/10 02:03:02;;;;;;;2.00;1.90;;;;;;;2.79;100.00;96620.00;5038542;28;20730;-71
2023/01/10 02:05:31;;;;;;;2.20;2.10;;;;;;;2.80;100.00;96626.88;5040408;28;20435;-71
2023/01/10 02:08:00;;;;;;;2.20;2.10;;;;;;;2.74;100.00;96633.50;5036612;28;20742;-69
2023/01/10 02:10:34;;;;;;;1.97;1.87;;;;;;;2.66;100.00;96634.28;5032450;28;21603;-71
2023/01/10 02:13:05;;;;;;;2.23;2.13;;;;;;;2.62;100.00;96634.69;5044544;28;20707;-71
2023/01/10 02:15:32;;;;;;;2.50;2.30;;;;;;;2.63;100.00;96636.34;5001327;28;20468;-72
2023/01/10 02:18:01;;;;;;;3.00;2.80;;;;;;;2.62;100.00;96645.16;5039239;28;20200;-71
2023/01/10 02:20:30;;;;;;;2.77;2.57;;;;;;;2.59;100.00;96641.88;5039427;28;20421;-72
2023/01/10 02:23:27;;;;;;;2.70;2.50;;;;;;;2.59;100.00;96662.81;5041631;28;20557;-71
2023/01/10 02:26:22;;;;;;;2.40;2.30;;;;;;;2.51;100.00;96654.88;5038742;28;20222;-71
2023/01/10 02:29:15;;;;;;;2.60;2.20;;;;;;;2.58;100.00;96671.63;5039354;28;20273;-72
2023/01/10 02:32:08;;;;;;;2.43;2.23;;;;;;;2.55;100.00;96669.28;5001655;28;20417;-71
2023/01/10 02:34:44;;;;;;;2.27;2.17;;;;;;;2.55;100.00;96674.53;5041292;28;20221;-71
2023/01/10 02:37:14;;;;;;;2.70;2.37;;;;;;;2.54;100.00;96674.66;5035284;28;20233;-70
2023/01/10 02:39:49;;;;;;;4.10;2.40;;;;;;;2.55;100.00;96682.38;5043806;28;20227;-71
2023/01/10 02:42:21;;;;;;;2.30;2.20;;;;;;;2.52;100.00;96687.06;5039214;28;20428;-71
2023/01/10 02:44:52;;;;;;;1.90;1.90;;;;;;;2.53;100.00;96689.53;5039569;28;20222;-71
2023/01/10 02:47:21;;;;;;;2.63;2.07;;;;;;;2.49;100.00;96695.19;4997341;28;20229;-72
2023/01/10 02:49:50;;;;;;;2.50;2.40;;;;;;;2.46;100.00;96706.75;5036380;28;20231;-72
2023/01/10 02:52:20;;;;;;;2.60;2.40;;;;;;;2.46;100.00;96704.97;5035593;28;20677;-71
2023/01/10 02:54:49;;;;;;;3.13;2.90;;;;;;;2.50;100.00;96712.53;5044619;28;20914;-71
2023/01/10 02:57:25;;;;;;;2.57;2.43;;;;;;;2.51;100.00;96717.63;5033869;28;20207;-72
2023/01/10 03:00:31;;;;;;;2.40;2.30;;;;;;;2.51;100.00;96708.94;5032223;28;20223;-72
2023/01/10 03:03:15;;;;;;;2.97;2.87;;;;;;;2.49;100.00;96706.50;4992307;28;20218;-71
2023/01/10 03:05:51;;;;;;;3.27;2.97;;;;;;;2.44;100.00;96714.75;5039543;28;20237;-71
2023/01/10 03:08:26;;;;;;;2.83;2.73;;;;;;;2.49;100.00;96714.34;5039036;28;20213;-71
2023/01/10 03:10:56;;;;;;;3.60;3.30;;;;;;;2.49;100.00;96718.72;5040739;28;20616;-71
2023/01/10 03:13:27;;;;;;;2.80;2.70;;;;;;;2.51;100.00;96730.72;5043602;28;20387;-71
2023/01/10 03:15:56;;;;;;;5.13;2.83;;;;;;;2.51;100.00;96728.09;5036753;28;20562;-71
2023/01/10 03:18:28;;;;;;;3.10;2.80;;;;;;;2.51;100.00;96729.88;4995650;28;20367;-70
2023/01/10 03:20:57;;;;;;;3.00;2.80;;;;;;;2.50;100.00;96734.28;5036590;28;20208;-70
2023/01/10 03:23:26;;;;;;;3.47;3.27;;;;;;;2.51;100.00;96735.94;5037442;28;20328;-69
2023/01/10 03:25:56;;;;;;;3.40;3.20;;;;;;;2.57;100.00;96748.44;5044483;28;20222;-71
2023/01/10 03:28:26;;;;;;;3.70;3.50;;;;;;;2.57;100.00;96751.06;5042533;28;20642;-71
2023/01/10 03:30:57;;;;;;;3.23;3.03;;;;;;;2.61;100.00;96754.19;5042141;28;20225;-71
2023/01/10 03:33:28;;;;;;;3.40;3.20;;;;;;;2.63;100.00;96761.91;4999162;28;21197;-73
2023/01/10 03:36:02;;;;;;;3.87;3.00;;;;;;;2.62;100.00;96771.53;5042951;28;20203;-69
2023/01/10 03:38:36;;;;;;;3.10;2.90;;;;;;;2.50;100.00;96764.84;5043855;28;20210;-71
2023/01/10 03:41:08;;;;;;;3.33;3.13;;;;;;;2.54;100.00;96761.81;5048148;28;20303;-71
2023/01/10 03:46:32;;;;;;;4.03;3.63;;;;;;;2.60;100.00;96789.16;5039243;28;20246;-71
2023/01/10 03:49:03;;;;;;;3.60;3.20;;;;;;;2.66;100.00;96782.53;5002641;28;20235;-71
2023/01/10 03:51:32;;;;;;;3.93;3.63;;;;;;;2.66;100.00;96796.47;5041616;28;20617;-71
2023/01/10 03:54:00;;;;;;;3.50;3.40;;;;;;;2.64;100.00;96800.16;5022687;28;20215;-72
2023/01/10 03:56:27;;;;;;;4.00;3.57;;;;;;;2.63;100.00;96806.38;5044632;28;20702;-71
2023/01/10 03:58:55;;;;;;;3.70;3.50;;;;;;;2.65;100.00;96812.28;5044228;28;20305;-72
2023/01/10 04:01:23;;;;;;;3.80;3.60;;;;;;;2.73;100.00;96817.63;5043331;28;20873;-72
2023/01/10 04:03:50;;;;;;;4.27;3.97;;;;;;;2.69;100.00;96819.72;4992076;28;20966;-71
2023/01/10 04:06:20;;;;;;;3.57;3.30;;;;;;;2.78;100.00;96823.25;5033363;28;20666;-72
2023/01/10 04:08:47;;;;;;;3.63;3.43;;;;;;;2.79;100.00;96827.50;4993163;28;20226;-74
2023/01/10 04:11:15;;;;;;;3.43;3.27;;;;;;;2.75;100.00;96831.38;5040927;28;20617;-73
2023/01/10 04:13:42;;;;;;;3.70;3.50;;;;;;;2.71;100.00;96823.00;5042251;28;20297;-70
2023/01/10 04:16:10;;;;;;;3.37;3.17;;;;;;;2.64;100.00;96831.56;5039702;28;20226;-71
2023/01/10 04:18:38;;;;;;;3.70;3.50;;;;;;;2.58;100.00;96831.16;5047262;28;20242;-70
2023/01/10 04:21:06;;;;;;;3.50;3.33;;;;;;;2.56;100.00;96838.34;5045239;28;20695;-70
2023/01/10 04:23:35;;;;;;;3.93;3.63;;;;;;;2.57;100.00;96839.97;5001909;28;20203;-72
2023/01/10 04:26:03;;;;;;;3.37;3.17;;;;;;;2.55;100.00;96843.69;5038106;28;20227;-70
2023/01/10 04:28:30;;;;;;;3.50;3.30;;;;;;;2.57;100.00;96853.06;5038702;28;20519;-72
2023/01/10 04:30:58;;;;;;;3.53;3.40;;;;;;;2.52;100.00;96842.19;5039346;28;20207;-71
2023/01/10 04:33:27;;;;;;;3.60;3.40;;;;;;;2.57;100.00;96858.28;5033933;28;20401;-72
2023/01/10 04:35:54;;;;;;;3.50;3.30;;;;;;;2.56;100.00;96861.88;5043122;28;20690;-72
2023/01/10 04:38:22;;;;;;;4.77;4.13;;;;;;;2.58;100.00;96867.78;5038070;28;20199;-72
2023/01/10 04:40:54;;;;;;;3.90;3.70;;;;;;;2.59;100.00;96868.59;4997613;28;20207;-70
2023/01/10 04:43:22;;;;;;;3.57;3.37;;;;;;;2.58;100.00;96872.19;5040317;28;20964;-71
2023/01/10 04:45:49;;;;;;;4.20;4.00;;;;;;;2.56;100.00;96887.19;5042159;28;20238;-70
2023/01/10 04:48:17;;;;;;;3.77;3.57;;;;;;;2.50;100.00;96893.00;5038564;28;20230;-71
2023/01/10 04:50:49;;;;;;;4.03;3.80;;;;;;;2.48;100.00;96900.16;5038369;28;20230;-70
2023/01/10 04:53:16;;;;;;;3.63;3.40;;;;;;;2.49;100.00;96901.78;5020326;28;20215;-71
2023/01/10 04:55:44;;;;;;;4.30;4.00;;;;;;;2.45;100.00;96909.09;4997126;28;20241;-70
2023/01/10 04:58:15;;;;;;;4.10;3.90;;;;;;;2.39;100.00;96912.25;5034698;28;20605;-70
2023/01/10 05:00:43;;;;;;;3.60;3.40;;;;;;;2.42;100.00;96923.28;5035829;28;20254;-70
2023/01/10 05:03:10;;;;;;;3.43;3.23;;;;;;;2.42;100.00;96923.28;5039151;28;20706;-69
2023/01/10 05:05:38;;;;;;;5.43;3.27;;;;;;;2.41;100.00;96926.03;5043507;28;20354;-70
2023/01/10 05:08:06;;;;;;;4.13;3.93;;;;;;;2.42;100.00;96930.28;5036199;28;20210;-70
2023/01/10 05:10:33;;;;;;;3.90;3.70;;;;;;;2.44;100.00;96933.59;4994931;28;20631;-70
2023/01/10 05:13:01;;;;;;;3.93;3.73;;;;;;;2.35;100.00;96945.72;5040542;28;20219;-69
2023/01/10 05:15:29;;;;;;;4.50;4.20;;;;;;;2.36;100.00;96946.53;5039996;28;20428;-72
2023/01/10 05:17:58;;;;;;;4.47;4.20;;;;;;;2.38;100.00;96948.06;5039839;28;20725;-69
2023/01/10 05:20:25;;;;;;;3.93;3.70;;;;;;;2.23;100.00;96958.09;5021901;28;20785;-70
2023/01/10 05:22:53;;;;;;;3.77;3.57;;;;;;;2.14;100.00;96945.84;5038910;28;20423;-71
2023/01/10 05:25:21;;;;;;;4.30;4.03;;;;;;;2.28;100.00;96974.19;5022582;28;20200;-72
2023/01/10 05:27:49;;;;;;;4.50;4.10;;;;;;;2.29;100.00;96975.84;4999685;28;20230;-71
2023/01/10 05:30:17;;;;;;;4.67;4.27;;;;;;;2.28;100.00;96974.19;5042451;28;20455;-71
2023/01/10 05:32:46;;;;;;;4.63;4.33;;;;;;;2.18;100.00;96973.38;5036811;28;20204;-70
2023/01/10 05:35:13;;;;;;;5.43;5.03;;;;;;;2.17;100.00;96980.38;5041403;28;20419;-69
2023/01/10 05:37:41;;;;;;;4.43;4.13;;;;;;;2.10;100.00;96987.13;5032815;28;20200;-70
2023/01/10 05:40:10;;;;;;;4.97;4.60;;;;;;;2.00;100.00;96996.72;5039682;28;20525;-71
2023/01/10 05:42:37;;;;;;;4.00;3.80;;;;;;;1.96;100.00;96998.78;5005461;28;20218;-72
2023/01/10 05:45:06;;;;;;;4.53;4.33;;;;;;;1.98;100.00;97003.88;5040507;28;20222;-69
2023/01/10 05:47:33;;;;;;;5.13;4.73;;;;;;;1.92;100.00;97007.03;5045415;28;20218;-69
2023/01/10 05:50:02;;;;;;;4.73;4.43;;;;;;;1.96;100.00;97013.66;5042236;28;20733;-69
2023/01/10 05:52:30;;;;;;;4.97;4.57;;;;;;;1.98;100.00;97004.69;5038191;28;20741;-71
2023/01/10 05:54:57;;;;;;;4.70;4.40;;;;;;;1.96;100.00;97013.66;5041083;28;20203;-70
2023/01/10 05:57:25;;;;;;;4.93;4.63;;;;;;;2.03;100.00;97020.78;4997854;28;20217;-69
2023/01/10 05:59:53;;;;;;;4.63;4.33;;;;;;;2.11;100.00;97029.78;5040813;28;20219;-71
2023/01/10 06:02:21;;;;;;;5.70;5.40;;;;;;;2.07;100.00;97013.53;5044830;28;20412;-70
2023/01/10 06:04:50;;;;;;;6.13;4.90;;;;;;;2.17;100.00;97029.22;5040014;28;20218;-71
2023/01/10 06:07:19;;;;;;;5.33;5.03;;;;;;;2.13;100.00;97043.53;5040089;28;20745;-70
2023/01/10 06:09:46;;;;;;;5.13;4.83;;;;;;;2.14;100.00;97039.97;5036953;28;20223;-71
2023/01/10 06:12:14;;;;;;;5.43;4.93;;;;;;;2.26;100.00;97044.09;5004685;28;20222;-70
2023/01/10 06:14:42;;;;;;;5.50;5.00;;;;;;;2.21;100.00;97056.75;5043131;28;20336;-71
2023/01/10 06:17:09;;;;;;;5.10;4.70;;;;;;;2.16;100.00;97061.56;4994904;28;21030;-71
2023/01/10 06:19:37;;;;;;;5.27;4.87;;;;;;;2.13;100.00;97070.47;5031255;28;20235;-72
2023/01/10 06:22:04;;;;;;;5.40;5.00;;;;;;;2.11;100.00;97084.66;5034080;28;20507;-71
2023/01/10 06:24:33;;;;;;;5.60;5.17;;;;;;;2.13;100.00;97085.34;5023230;28;20218;-71
2023/01/10 06:27:01;;;;;;;5.60;5.30;;;;;;;2.14;100.00;97087.00;5035504;28;20230;-70
2023/01/10 06:29:29;;;;;;;6.10;5.60;;;;;;;2.09;100.00;97089.19;5037424;28;20256;-71
2023/01/10 06:31:56;;;;;;;6.23;5.83;;;;;;;2.14;100.00;97102.69;4997446;28;20211;-69
2023/01/10 06:34:24;;;;;;;5.27;4.87;;;;;;;2.12;100.00;97108.03;5046131;28;20213;-72
2023/01/10 06:36:51;;;;;;;5.90;5.23;;;;;;;2.15;100.00;97102.53;5040590;28;20289;-70
2023/01/10 06:39:19;;;;;;;4.63;4.33;;;;;;;2.17;100.00;97118.91;5041897;28;20219;-71
2023/01/10 06:41:48;;;;;;;6.67;6.17;;;;;;;2.17;100.00;97118.13;5028409;28;20203;-70
2023/01/10 06:44:15;;;;;;;6.10;5.60;;;;;;;2.19;100.00;97129.25;5039764;28;20313;-70
2023/01/10 06:46:43;;;;;;;5.50;5.10;;;;;;;2.21;100.00;97124.72;5002248;28;20222;-70
2023/01/10 06:49:11;;;;;;;5.43;5.00;;;;;;;2.20;100.00;97136.13;5043868;28;20219;-71
2023/01/10 06:51:38;;;;;;;5.50;5.10;;;;;;;2.19;100.00;97142.31;5044285;28;20226;-70
2023/01/10 06:54:06;;;;;;;6.40;5.90;;;;;;;2.22;100.00;97146.44;5040791;28;20296;-72
2023/01/10 06:56:33;;;;;;;5.83;5.33;;;;;;;2.19;100.00;97150.19;5033023;28;20217;-71
2023/01/10 06:59:02;;;;;;;4.90;4.60;;;;;;;2.17;100.00;97165.16;5039348;28;20372;-71
2023/01/10 07:01:30;;;;;;;6.20;5.70;;;;;;;2.14;100.00;97168.84;5046481;28;20254;-68
2023/01/10 07:03:57;;;;;;;6.10;5.53;;;;;;;2.11;100.00;97170.91;4999427;28;20214;-70
2023/01/10 07:06:25;;;;;;;5.57;5.17;;;;;;;2.13;100.00;97182.88;5045903;28;20227;-71
2023/01/10 07:08:55;;;;;;;5.87;5.47;;;;;;;2.12;100.00;97183.84;5043059;28;20976;-70
2023/01/10 07:11:22;;;;;;;5.77;5.30;;;;;;;2.12;100.00;97189.06;5050189;28;20233;-71
2023/01/10 07:13:52;;;;;;;5.60;5.10;;;;;;;2.13;100.00;97190.72;5026153;28;20230;-70
2023/01/10 07:16:21;;;;;;;5.90;5.50;;;;;;;2.11;100.00;97190.03;5047483;28;20286;-71
2023/01/10 07:18:49;;;;;;;5.40;5.00;;;;;;;2.13;100.00;97197.75;4993419;28;20726;-70
2023/01/10 07:21:18;;;;;;;5.53;5.13;;;;;;;2.13;100.00;97202.97;5046896;28;20716;-70
2023/01/10 07:23:47;;;;;;;7.63;5.10;;;;;;;2.14;100.00;97222.94;5049688;28;20200;-71
2023/01/10 07:26:16;;;;;;;5.97;5.37;;;;;;;2.18;100.00;97219.09;5047926;28;20586;-72
2023/01/10 07:28:44;;;;;;;5.97;5.50;;;;;;;2.22;100.00;97224.88;5034168;28;20242;-70
2023/01/10 07:31:12;;;;;;;5.87;5.47;;;;;;;2.20;100.00;97227.66;5042949;28;20880;-72
2023/01/10 07:33:41;;;;;;;5.87;5.20;;;;;;;2.15;100.00;97246.31;5008116;28;20228;-69
2023/01/10 07:36:09;;;;;;;6.07;5.57;;;;;;;2.12;100.00;97240.53;5039660;28;20207;-70
2023/01/10 07:38:37;;;;;;;6.27;5.77;;;;;;;2.20;100.00;97248.56;5037619;28;20219;-72
2023/01/10 07:41:05;;;;;;;5.90;5.40;;;;;;;2.15;100.00;97242.88;5034994;28;20206;-70
2023/01/10 07:43:33;;;;;;;8.30;4.97;;;;;;;2.20;100.00;97258.16;5028835;28;20207;-72
2023/01/10 07:46:01;;;;;;;5.53;5.03;;;;;;;2.24;100.00;97262.19;5037563;28;20511;-72
2023/01/10 07:48:29;;;;;;;5.80;4.60;;;;;;;2.20;100.00;97279.94;5043417;28;20226;-70
2023/01/10 07:51:00;;;;;;;13.63;4.57;;;;;;;2.14;100.00;97270.00;5008068;28;20373;-71
2023/01/10 07:53:29;;;;;;;4.40;4.00;;;;;;;2.06;100.00;97275.84;5047188;28;20203;-72
2023/01/10 07:55:59;;;;;;;4.07;3.77;;;;;;;2.06;100.00;97283.69;5038676;28;20204;-69
2023/01/10 07:58:27;;;;;;;4.77;4.47;;;;;;;2.00;100.00;97289.44;5026054;28;20200;-71
2023/01/10 08:00:57;;;;;;;4.30;4.00;;;;;;;1.93;100.00;97285.69;5031493;28;20211;-70
2023/01/10 08:03:25;;;;;;;5.60;5.07;;;;;;;2.09;100.00;97303.53;5041541;28;20502;-71
2023/01/10 08:05:59;;;;;;;5.03;4.63;;;;;;;2.10;100.00;97303.38;5001561;28;20683;-71
2023/01/10 08:08:28;;;;;;;4.90;4.60;;;;;;;2.14;100.00;97307.41;5039560;28;20318;-72
2023/01/10 08:10:56;;;;;;;4.90;4.60;;;;;;;2.20;100.00;97307.84;5043234;28;20216;-71
2023/01/10 08:13:23;;;;;;;6.30;5.50;;;;;;;2.25;100.00;97321.34;5026067;28;20208;-71
2023/01/10 08:15:51;;;;;;;5.67;5.17;;;;;;;2.20;100.00;97303.47;5042439;28;20501;-71
2023/01/10 08:18:21;;;;;;;5.13;4.73;;;;;;;2.34;100.00;97323.22;5043095;28;20200;-70
2023/01/10 08:20:49;;;;;;;6.97;6.37;;;;;;;2.33;100.00;97332.03;5007147;28;20348;-70
2023/01/10 08:23:19;;;;;;;6.23;5.73;;;;;;;2.32;100.00;97335.59;5036229;28;20718;-70
2023/01/10 08:25:47;;;;;;;7.00;6.43;;;;;;;2.25;100.00;97339.66;5014332;28;20866;-71
2023/01/10 08:28:15;;;;;;;6.03;5.53;;;;;;;2.20;100.00;97336.59;5034650;28;20245;-70
2023/01/10 08:30:43;;;;;;;8.97;8.17;;;;;;;2.15;100.00;97348.28;5034448;28;20203;-71
2023/01/10 08:33:11;;;;;;;7.17;6.63;;;;;;;2.12;100.00;97345.09;5032892;28;20606;-70
2023/01/10 08:35:40;;;;;;;9.37;7.13;;;;;;;2.20;100.00;97358.34;5044541;28;20238;-71
2023/01/10 08:38:08;;;;;;;8.40;7.40;;;;;;;2.24;100.00;97367.59;5033846;28;20656;-72
2023/01/10 08:40:37;;;;;;;9.47;8.57;;;;;;;2.37;100.00;97370.03;4998257;28;20505;-72
2023/01/10 08:43:06;;;;;;;8.80;7.97;;;;;;;2.47;100.00;97372.72;5035689;28;20210;-72
2023/01/10 08:45:34;;;;;;;9.07;8.27;;;;;;;2.57;100.00;97368.38;5034662;28;20213;-72
2023/01/10 08:48:02;;;;;;;8.43;7.70;;;;;;;2.56;100.00;97358.88;5025379;28;20242;-72
2023/01/10 08:50:30;;;;;;;7.87;6.93;;;;;;;2.67;100.00;97378.06;5039999;28;20223;-70
2023/01/10 08:52:58;;;;;;;12.00;10.57;;;;;;;2.72;100.00;97381.09;5037880;28;20200;-72
2023/01/10 08:55:26;;;;;;;8.40;7.70;;;;;;;2.63;100.00;97385.31;4996454;28;20208;-69
2023/01/10 08:57:55;;;;;;;8.40;6.20;;;;;;;2.55;100.00;97387.75;5038166;28;20199;-70
2023/01/10 09:00:23;;;;;;;5.83;5.23;;;;;;;2.41;100.00;97367.97;5037461;28;20223;-70
2023/01/10 09:02:51;;;;;;;6.10;5.70;;;;;;;2.46;100.00;97379.72;5029597;28;20321;-71
2023/01/10 09:05:19;;;;;;;5.40;4.90;;;;;;;2.47;100.00;97385.81;5037029;28;20219;-70
2023/01/10 09:07:58;;;;;;;6.47;5.70;;;;;;;2.51;100.00;97381.13;5040514;28;20350;-72
2023/01/10 09:10:26;;;;;;;5.30;4.90;;;;;;;2.56;100.00;97386.78;5009432;28;20227;-69
2023/01/10 09:12:55;;;;;;;7.03;6.10;;;;;;;2.49;100.00;97381.28;5028403;28;20215;-70
2023/01/10 09:15:24;;;;;;;5.90;5.27;;;;;;;2.58;100.00;97392.72;5042739;28;20195;-69
2023/01/10 09:17:53;;;;;;;7.63;6.30;;;;;;;2.67;100.00;97398.97;5027153;28;20210;-72
2023/01/10 09:20:21;;;;;;;6.37;5.97;;;;;;;2.73;100.00;97399.31;5035597;28;20259;-69
2023/01/10 09:22:49;;;;;;;6.87;6.27;;;;;;;2.91;100.00;97419.63;5046010;28;20206;-72
2023/01/10 09:25:16;;;;;;;6.63;6.03;;;;;;;2.98;100.00;97422.56;5040033;28;20912;-70
2023/01/10 09:27:44;;;;;;;6.67;6.03;;;;;;;2.94;100.00;97434.28;5004980;28;20215;-72
2023/01/10 09:30:14;;;;;;;5.60;4.10;;;;;;;2.85;100.00;97433.25;5035294;28;20234;-70
2023/01/10 09:32:41;;;;;;;3.67;3.37;;;;;;;2.80;100.00;97432.81;5029482;28;20214;-71
2023/01/10 09:35:09;;;;;;;4.53;4.23;;;;;;;2.89;100.00;97437.25;5042515;28;20217;-70
2023/01/10 09:37:36;;;;;;;4.03;3.60;;;;;;;2.94;100.00;97429.84;5038101;28;20607;-71
2023/01/10 09:40:06;;;;;;;4.43;4.13;;;;;;;3.01;100.00;97430.16;5041104;28;20337;-70
2023/01/10 09:42:51;;;;;;;6.00;5.40;;;;;;;3.12;100.00;97435.31;4999566;28;21750;-72
2023/01/10 09:45:26;;;;;;;4.87;4.43;;;;;;;3.16;100.00;97426.22;5036281;28;20195;-72
2023/01/10 09:47:58;;;;;;;4.50;4.10;;;;;;;3.28;100.00;97434.03;5044400;28;20206;-71
2023/01/10 09:50:32;;;;;;;4.70;4.40;;;;;;;3.38;100.00;97441.91;5031594;28;20226;-71
2023/01/10 09:53:04;;;;;;;4.60;4.20;;;;;;;3.31;100.00;97452.91;5037559;28;20203;-71
2023/01/10 09:55:33;;;;;;;4.27;3.90;;;;;;;3.14;100.00;97456.13;5040363;28;20221;-71
2023/01/10 09:58:04;;;;;;;4.50;4.10;;;;;;;3.18;100.00;97460.16;5034846;28;20206;-71
2023/01/10 10:00:38;;;;;;;4.27;3.97;;;;;;;3.23;100.00;97459.78;5015776;28;20359;-72
2023/01/10 10:03:19;;;;;;;3.90;3.60;;;;;;;3.42;100.00;97472.13;5031186;28;20202;-70
2023/01/10 10:05:46;;;;;;;4.23;3.17;;;;;;;3.30;100.00;97479.25;5041165;28;20452;-72
2023/01/10 10:08:17;;;;;;;2.83;2.63;;;;;;;3.22;100.00;97479.03;5035317;28;20654;-70
2023/01/10 10:10:54;;;;;;;2.97;2.67;;;;;;;3.19;100.00;97465.25;5045496;28;20623;-73
2023/01/10 10:13:31;;;;;;;4.37;2.47;;;;;;;3.10;100.00;97459.97;5037468;28;20206;-72
2023/01/10 10:16:06;;;;;;;2.80;2.20;;;;;;;3.19;100.00;97454.78;4994823;28;20207;-71
2023/01/10 10:18:42;;;;;;;3.27;2.60;;;;;;;3.13;100.00;97444.81;5038131;28;20480;-72
2023/01/10 10:21:15;;;;;;;3.57;3.23;;;;;;;3.22;100.00;97455.47;5022146;28;20214;-71
2023/01/10 10:24:09;;;;;;;5.57;3.63;;;;;;;3.15;100.00;97447.31;5043367;28;20529;-73
2023/01/10 10:26:39;;;;;;;4.00;3.10;;;;;;;3.26;100.00;97459.50;5041365;28;20207;-72
2023/01/10 10:29:46;;;;;;;3.40;2.90;;;;;;;3.22;100.00;97452.84;5018321;28;20231;-69
2023/01/10 10:32:26;;;;;;;4.43;2.87;;;;;;;3.28;100.00;97452.34;4973243;28;20973;-70
2023/01/10 10:34:58;;;;;;;3.67;3.37;;;;;;;3.23;100.00;97457.97;5030948;28;20202;-71
2023/01/10 10:37:31;;;;;;;4.40;3.47;;;;;;;3.24;100.00;97448.34;5038001;28;20214;-71
2023/01/10 10:40:01;;;;;;;3.73;3.37;;;;;;;3.27;100.00;97448.88;5035043;28;20448;-71
2023/01/10 10:42:31;;;;;;;6.67;3.33;;;;;;;3.21;100.00;97467.75;5025410;28;20207;-73
2023/01/10 10:45:02;;;;;;;4.43;3.63;;;;;;;3.19;100.00;97475.72;5040313;28;20207;-70
2023/01/10 10:47:33;;;;;;;6.60;3.17;;;;;;;3.17;100.00;97477.63;4997750;28;20210;-72
2023/01/10 10:50:07;;;;;;;3.47;3.23;;;;;;;3.19;100.00;97464.44;5031067;28;20235;-72
2023/01/10 10:52:36;;;;;;;3.90;3.37;;;;;;;3.30;100.00;97456.47;5039643;28;20214;-73
2023/01/10 10:55:05;;;;;;;4.10;3.77;;;;;;;3.35;100.00;97450.00;5036095;28;20293;-70
2023/01/10 10:57:37;;;;;;;3.43;3.10;;;;;;;3.35;100.00;97457.88;5024780;28;20918;-73
2023/01/10 11:00:08;;;;;;;3.37;3.13;;;;;;;3.31;100.00;97433.75;5029191;28;20219;-73
2023/01/10 11:02:43;;;;;;;3.87;3.10;;;;;;;3.38;100.00;97466.31;5038351;28;20196;-70
2023/01/10 11:05:17;;;;;;;4.13;3.70;;;;;;;3.41;100.00;97463.44;5023877;28;20734;-73
2023/01/10 11:07:45;;;;;;;5.17;3.47;;;;;;;3.42;100.00;97464.28;5039246;28;20609;-70
2023/01/10 11:10:35;;;;;;;3.90;3.50;;;;;;;3.45;100.00;97451.72;5033347;28;20440;-71
2023/01/10 11:13:05;;;;;;;4.70;3.73;;;;;;;3.58;100.00;97459.34;5019009;28;20214;-72
2023/01/10 11:15:39;;;;;;;4.20;3.73;;;;;;;3.38;100.00;97462.84;5041546;28;20683;-72
2023/01/10 11:18:12;;;;;;;3.40;3.10;;;;;;;3.39;100.00;97459.25;5029414;28;20238;-71
2023/01/10 11:20:48;;;;;;;4.77;3.20;;;;;;;3.66;100.00;97456.06;4999099;28;20226;-69
2023/01/10 11:23:23;;;;;;;5.13;3.27;;;;;;;3.66;100.00;97457.84;5038118;28;20749;-71
2023/01/10 11:25:51;;;;;;;3.70;3.37;;;;;;;3.62;100.00;97475.66;5033509;28;20249;-70
2023/01/10 11:28:22;;;;;;;4.03;3.70;;;;;;;3.71;100.00;97482.72;5025979;28;20216;-72
2023/01/10 11:30:50;;;;;;;4.67;4.13;;;;;;;3.58;100.00;97475.06;5030906;28;20251;-69
2023/01/10 11:33:22;;;;;;;5.67;5.17;;;;;;;3.56;100.00;97477.00;5040018;28;20305;-70
2023/01/10 11:35:59;;;;;;;3.93;3.63;;;;;;;3.54;100.00;97488.56;5000745;28;20218;-70
2023/01/10 11:38:29;;;;;;;6.43;3.90;;;;;;;3.35;100.00;97502.41;5039649;28;20208;-70
2023/01/10 11:40:59;;;;;;;4.77;3.53;;;;;;;3.32;100.00;97506.13;5041696;28;20195;-73
2023/01/10 11:43:29;;;;;;;4.60;3.60;;;;;;;3.25;100.00;97497.13;5029268;28;20214;-70
2023/01/10 11:46:01;;;;;;;5.40;3.53;;;;;;;3.17;100.00;97495.16;5037596;28;20195;-70
2023/01/10 11:48:43;;;;;;;3.93;3.47;;;;;;;3.17;100.00;97482.06;5045018;28;20682;-71
2023/01/10 11:51:34;;;;;;;3.50;3.20;;;;;;;3.06;100.00;97490.81;4999665;28;20219;-70
2023/01/10 11:54:03;;;;;;;7.03;5.03;;;;;;;3.05;100.00;97483.91;5047707;28;20242;-71
2023/01/10 11:56:32;;;;;;;3.87;3.57;;;;;;;3.07;100.00;97496.91;5046461;28;20206;-71